Time;durP1;ratioP1;P1;durP2;ratioP2;P2;SDS_P1;SDS_P2;PMS_P1;PMS_P2;Temp;Humidity;BMP_temperature;BMP_pressure;BME280_temperature;BME280_humidity;BME280_pressure;Samples;Min_cycle;Max_cycle;Signal;HPM_P1;HPM_P2
2023/10/02 00:01:56;;;;;;;23.00;10.98;;;17.80;99.90;;;;;;5059704;28;20055;-73
2023/10/02 00:04:24;;;;;;;19.58;10.82;;;17.80;99.90;;;;;;5055598;28;20045;-73
2023/10/02 00:07:05;;;;;;;22.38;11.35;;;17.80;99.90;;;;;;5056081;28;20157;-73
2023/10/02 00:09:34;;;;;;;19.33;11.00;;;17.70;99.90;;;;;;5056141;28;20042;-73
2023/10/02 00:12:12;;;;;;;22.52;11.07;;;17.70;99.90;;;;;;5068503;28;20040;-74
2023/10/02 00:14:38;;;;;;;21.98;10.60;;;17.70;99.90;;;;;;5076284;28;20036;-73
2023/10/02 00:17:06;;;;;;;20.95;10.85;;;17.70;99.90;;;;;;5094318;28;20518;-73
2023/10/02 00:19:35;;;;;;;19.20;10.25;;;17.60;99.90;;;;;;5075911;28;20451;-73
2023/10/02 00:22:08;;;;;;;17.42;10.10;;;17.60;99.90;;;;;;5075798;28;20080;-73
2023/10/02 00:24:47;;;;;;;18.17;9.85;;;17.60;99.90;;;;;;5076104;28;20040;-73
2023/10/02 00:27:13;;;;;;;19.27;10.00;;;17.50;99.90;;;;;;5076278;28;20414;-73
2023/10/02 00:29:51;;;;;;;17.75;9.75;;;17.50;99.90;;;;;;5075627;28;20050;-73
2023/10/02 00:32:19;;;;;;;22.80;10.57;;;17.50;99.90;;;;;;5075799;28;20594;-73
2023/10/02 00:34:46;;;;;;;21.95;10.27;;;17.50;99.90;;;;;;5075897;28;20040;-73
2023/10/02 00:37:15;;;;;;;22.20;10.85;;;17.40;99.90;;;;;;5075988;28;20036;-73
2023/10/02 00:39:41;;;;;;;16.92;9.07;;;17.40;99.90;;;;;;5075464;28;20051;-73
2023/10/02 00:42:22;;;;;;;19.13;9.68;;;17.50;99.90;;;;;;5075898;28;20134;-73
2023/10/02 00:44:52;;;;;;;20.15;10.70;;;17.40;99.90;;;;;;5075712;28;20237;-73
2023/10/02 00:50:17;;;;;;;19.13;9.30;;;17.40;99.90;;;;;;5075276;28;20491;-73
2023/10/02 00:52:48;;;;;;;19.40;11.02;;;17.40;99.90;;;;;;5075403;28;20036;-73
2023/10/02 00:55:20;;;;;;;23.58;11.15;;;17.40;99.90;;;;;;5075489;28;20039;-73
2023/10/02 00:57:50;;;;;;;18.23;9.57;;;17.30;99.90;;;;;;5075543;28;20054;-73
2023/10/02 01:00:30;;;;;;;19.90;11.00;;;17.30;99.90;;;;;;5075058;28;20040;-73
2023/10/02 01:03:01;;;;;;;22.30;11.88;;;17.30;99.90;;;;;;5075582;28;20122;-73
2023/10/02 01:05:41;;;;;;;21.92;11.00;;;17.30;99.90;;;;;;5075322;28;20440;-73
2023/10/02 01:08:23;;;;;;;20.02;10.80;;;17.20;99.90;;;;;;5075183;28;20048;-73
2023/10/02 01:10:59;;;;;;;24.67;12.85;;;17.30;99.90;;;;;;5074975;28;20086;-73
2023/10/02 01:13:27;;;;;;;22.75;12.68;;;17.30;99.90;;;;;;5075062;28;20036;-73
2023/10/02 01:15:59;;;;;;;22.77;12.13;;;17.30;99.90;;;;;;5074867;28;20123;-73
2023/10/02 01:18:29;;;;;;;24.13;13.13;;;17.30;99.90;;;;;;5058594;28;20455;-73
2023/10/02 01:20:59;;;;;;;17.77;11.65;;;17.20;99.90;;;;;;5074858;28;20040;-73
2023/10/02 01:23:31;;;;;;;21.25;11.88;;;17.20;99.90;;;;;;5074681;28;20039;-73
2023/10/02 01:25:57;;;;;;;18.73;12.25;;;17.20;99.90;;;;;;5074867;28;20040;-74
2023/10/02 01:28:49;;;;;;;24.40;12.27;;;17.20;99.90;;;;;;5058100;28;20040;-73
2023/10/02 01:31:31;;;;;;;24.08;12.32;;;17.20;99.90;;;;;;5074447;28;20040;-73
2023/10/02 01:33:59;;;;;;;25.80;12.90;;;17.20;99.90;;;;;;5074760;28;20517;-73
2023/10/02 01:36:28;;;;;;;26.42;11.82;;;17.20;99.90;;;;;;5074865;28;20067;-73
2023/10/02 01:38:59;;;;;;;20.17;11.32;;;17.20;99.90;;;;;;5074363;28;20047;-74
2023/10/02 01:41:26;;;;;;;27.40;12.27;;;17.20;99.90;;;;;;5074534;28;20503;-73
2023/10/02 01:43:55;;;;;;;24.48;12.57;;;17.20;99.90;;;;;;5057540;28;20043;-73
2023/10/02 01:46:22;;;;;;;25.98;12.98;;;17.20;99.90;;;;;;5074671;28;20096;-73
2023/10/02 01:48:50;;;;;;;24.50;12.38;;;17.20;99.90;;;;;;5074165;28;20032;-74
2023/10/02 01:51:37;;;;;;;20.65;11.60;;;17.20;99.90;;;;;;5074281;28;20051;-73
2023/10/02 01:54:15;;;;;;;20.52;11.35;;;17.20;99.90;;;;;;5074331;28;20043;-73
2023/10/02 01:56:45;;;;;;;20.95;12.60;;;17.10;99.90;;;;;;5074428;28;20047;-74
2023/10/02 01:59:14;;;;;;;19.23;11.48;;;17.20;99.90;;;;;;5074029;28;20123;-74
2023/10/02 02:01:52;;;;;;;21.92;12.32;;;17.20;99.90;;;;;;5073831;28;20039;-74
2023/10/02 02:04:28;;;;;;;23.00;12.10;;;17.20;99.90;;;;;;5074343;28;20495;-74
2023/10/02 02:06:56;;;;;;;25.75;12.27;;;17.10;99.90;;;;;;5073948;28;20119;-73
2023/10/02 02:09:23;;;;;;;29.08;11.52;;;17.10;99.90;;;;;;5073652;28;20039;-73
2023/10/02 02:12:05;;;;;;;19.90;12.25;;;17.10;99.90;;;;;;5073842;28;20043;-73
2023/10/02 02:14:32;;;;;;;24.13;12.43;;;17.10;99.90;;;;;;5073906;28;20093;-73
2023/10/02 02:16:59;;;;;;;21.58;10.75;;;17.10;99.90;;;;;;5074102;28;20128;-73
2023/10/02 02:19:24;;;;;;;19.38;12.45;;;17.10;99.90;;;;;;5073535;28;20066;-73
2023/10/02 02:21:56;;;;;;;23.80;13.50;;;17.10;99.90;;;;;;5092011;28;20040;-74
2023/10/02 02:24:25;;;;;;;24.60;12.65;;;17.10;99.90;;;;;;5092163;28;20036;-74
2023/10/02 02:26:57;;;;;;;22.48;11.73;;;17.10;99.90;;;;;;5091379;28;20101;-73
2023/10/02 02:29:24;;;;;;;25.63;12.27;;;17.00;99.90;;;;;;5073503;28;20519;-74
2023/10/02 02:31:55;;;;;;;24.15;11.55;;;17.00;99.90;;;;;;5073644;28;20503;-73
2023/10/02 02:34:25;;;;;;;25.20;12.52;;;16.90;99.90;;;;;;5073652;28;20032;-73
2023/10/02 02:36:51;;;;;;;23.20;13.70;;;16.90;99.90;;;;;;5073875;28;20036;-73
2023/10/02 02:39:22;;;;;;;21.13;11.65;;;16.90;99.90;;;;;;5091726;28;20071;-73
2023/10/02 02:42:08;;;;;;;24.38;12.70;;;16.80;99.90;;;;;;5073841;28;20036;-74
2023/10/02 02:44:39;;;;;;;22.90;11.75;;;16.90;99.90;;;;;;5057263;28;20075;-74
2023/10/02 02:47:09;;;;;;;27.73;12.35;;;16.80;99.90;;;;;;5073441;28;20042;-73
2023/10/02 02:49:50;;;;;;;25.83;13.07;;;16.70;99.90;;;;;;5073209;28;20513;-73
2023/10/02 02:52:24;;;;;;;23.77;11.82;;;16.70;99.90;;;;;;5073462;28;20039;-73
2023/10/02 02:55:03;;;;;;;21.48;11.40;;;16.70;99.90;;;;;;5073015;28;20040;-73
2023/10/02 02:57:31;;;;;;;26.38;12.70;;;16.70;99.90;;;;;;5072186;28;20123;-74
2023/10/02 03:02:52;;;;;;;22.30;12.77;;;16.60;99.90;;;;;;5072957;28;20499;-74
2023/10/02 03:05:21;;;;;;;22.75;12.32;;;16.50;99.90;;;;;;5073230;28;20044;-74
2023/10/02 03:07:49;;;;;;;24.08;12.35;;;16.60;99.90;;;;;;5073447;28;20122;-73
2023/10/02 03:10:17;;;;;;;23.42;12.75;;;16.60;99.90;;;;;;5056400;28;20521;-74
2023/10/02 03:12:47;;;;;;;25.13;12.95;;;16.60;99.90;;;;;;5073176;28;20085;-74
2023/10/02 03:15:18;;;;;;;22.45;12.60;;;16.60;99.90;;;;;;5073334;28;20040;-73
2023/10/02 03:17:45;;;;;;;26.05;12.65;;;16.60;99.90;;;;;;5073308;28;20424;-74
2023/10/02 03:20:23;;;;;;;29.38;14.00;;;16.60;99.90;;;;;;5073100;28;20040;-73
2023/10/02 03:22:55;;;;;;;25.33;13.63;;;16.60;99.90;;;;;;5072990;28;20055;-74
2023/10/02 03:25:56;;;;;;;30.63;14.50;;;16.60;99.90;;;;;;5073260;28;20036;-74
2023/10/02 03:28:27;;;;;;;27.23;13.23;;;16.70;99.90;;;;;;5070069;28;20508;-73
2023/10/02 03:30:53;;;;;;;26.58;12.50;;;16.70;99.90;;;;;;5073057;28;20044;-73
2023/10/02 03:33:20;;;;;;;25.98;14.27;;;16.70;99.90;;;;;;5073235;28;20050;-73
2023/10/02 03:35:58;;;;;;;23.77;13.35;;;16.60;99.90;;;;;;5073247;28;20089;-75
2023/10/02 03:38:33;;;;;;;24.20;14.10;;;16.60;99.90;;;;;;5074307;28;20054;-75
2023/10/02 03:41:01;;;;;;;25.17;12.73;;;16.60;99.90;;;;;;5076725;28;20525;-75
2023/10/02 03:46:16;;;;;;;30.42;14.25;;;16.60;99.90;;;;;;5076704;28;20084;-73
2023/10/02 03:48:51;;;;;;;24.67;13.35;;;16.50;99.90;;;;;;5076471;28;20414;-73
2023/10/02 03:51:36;;;;;;;26.27;14.43;;;16.50;99.90;;;;;;5076561;28;20411;-73
2023/10/02 03:54:18;;;;;;;28.33;14.07;;;16.50;99.90;;;;;;5075811;28;20491;-73
2023/10/02 03:57:02;;;;;;;26.48;13.93;;;16.50;99.90;;;;;;5076385;28;20036;-73
2023/10/02 03:59:32;;;;;;;28.23;13.80;;;16.40;99.90;;;;;;5076028;28;20040;-73
2023/10/02 04:04:43;;;;;;;25.70;14.45;;;16.40;99.90;;;;;;5076206;28;20044;-73
2023/10/02 04:07:11;;;;;;;30.30;13.48;;;16.40;99.90;;;;;;5076305;28;20044;-73
2023/10/02 04:09:37;;;;;;;23.02;13.43;;;16.30;99.90;;;;;;5075804;28;20443;-73
2023/10/02 04:12:06;;;;;;;28.10;13.85;;;16.40;99.90;;;;;;5076255;28;20403;-73
2023/10/02 04:14:33;;;;;;;27.25;14.63;;;16.40;99.90;;;;;;5076043;28;20044;-73
2023/10/02 04:17:21;;;;;;;29.10;14.73;;;16.40;99.90;;;;;;5076351;28;20633;-73
2023/10/02 04:19:48;;;;;;;27.42;14.93;;;16.40;99.90;;;;;;5075496;28;20040;-74
2023/10/02 04:22:22;;;;;;;27.02;13.48;;;16.30;99.90;;;;;;5075724;28;20044;-74
2023/10/02 04:24:58;;;;;;;22.83;12.52;;;16.30;99.90;;;;;;5076550;28;20592;-74
2023/10/02 04:32:52;;;;;;;;;;;16.30;99.90;;;;;;5076389;28;20048;-74
2023/10/02 04:38:07;;;;;;;26.25;13.20;;;16.20;99.90;;;;;;5075777;28;20048;-74
2023/10/02 04:40:51;;;;;;;31.70;14.52;;;16.20;99.90;;;;;;5075726;28;20558;-75
2023/10/02 04:43:25;;;;;;;26.75;13.73;;;16.20;99.90;;;;;;5076051;28;20089;-75
2023/10/02 04:46:08;;;;;;;27.73;13.38;;;16.20;99.90;;;;;;5075791;28;20044;-74
2023/10/02 04:48:42;;;;;;;;;;;16.20;99.90;;;;;;5059207;28;20090;-75
2023/10/02 04:51:12;;;;;;;25.50;13.73;;;16.20;99.90;;;;;;5059476;28;19920;-75
2023/10/02 04:53:42;;;;;;;29.88;14.18;;;16.10;99.90;;;;;;5076009;28;20119;-75
2023/10/02 04:58:49;;;;;;;28.38;15.38;;;16.10;99.90;;;;;;5075523;28;20071;-75
2023/10/02 05:01:29;;;;;;;25.00;13.05;;;16.10;99.90;;;;;;5074939;28;20040;-75
2023/10/02 05:04:02;;;;;;;24.65;12.90;;;16.10;99.90;;;;;;5074968;28;20050;-75
2023/10/02 05:11:52;;;;;;;29.88;15.05;;;16.00;99.90;;;;;;5075251;28;20044;-75
2023/10/02 05:14:29;;;;;;;27.75;14.00;;;16.10;99.90;;;;;;5058608;28;20537;-75
2023/10/02 05:17:17;;;;;;;26.00;14.32;;;16.10;99.90;;;;;;5059183;28;20032;-74
2023/10/02 05:20:04;;;;;;;26.25;14.05;;;16.10;99.90;;;;;;5074776;28;20514;-75
2023/10/02 05:22:31;;;;;;;28.48;14.95;;;16.10;99.90;;;;;;5074937;28;20106;-75
2023/10/02 05:24:59;;;;;;;26.13;14.25;;;16.10;99.90;;;;;;5074979;28;20040;-75
2023/10/02 05:27:31;;;;;;;27.95;14.98;;;16.20;99.90;;;;;;5074709;28;20043;-76
2023/10/02 05:29:58;;;;;;;29.90;14.82;;;16.20;99.90;;;;;;5092656;28;20047;-73
2023/10/02 05:32:31;;;;;;;27.23;13.95;;;16.20;99.90;;;;;;5073658;28;20032;-73
2023/10/02 05:35:16;;;;;;;;;;;16.20;99.90;;;;;;5058274;28;20173;-74
2023/10/02 05:37:46;;;;;;;24.70;13.68;;;16.10;99.90;;;;;;5073556;28;19916;-74
2023/10/02 05:45:38;;;;;;;28.45;13.45;;;16.10;99.90;;;;;;5074649;28;20051;-74
2023/10/02 05:50:52;;;;;;;28.52;14.63;;;16.10;99.90;;;;;;5074214;28;20036;-75
2023/10/02 05:53:20;;;;;;;28.05;13.80;;;16.00;99.90;;;;;;5074396;28;20495;-76
2023/10/02 05:58:35;;;;;;;32.40;14.32;;;16.00;99.90;;;;;;5073919;28;20511;-74
2023/10/02 06:01:18;;;;;;;29.15;14.77;;;16.00;99.90;;;;;;5073156;28;20040;-74
2023/10/02 06:03:58;;;;;;;30.60;15.73;;;16.00;99.90;;;;;;5074123;28;20085;-74
2023/10/02 06:06:25;;;;;;;29.42;15.13;;;16.00;99.90;;;;;;5074252;28;20418;-73
2023/10/02 06:08:56;;;;;;;27.67;14.75;;;16.10;99.90;;;;;;5092193;28;20042;-74
2023/10/02 06:11:26;;;;;;;25.25;14.82;;;16.10;99.90;;;;;;5073960;28;20047;-74
2023/10/02 06:14:09;;;;;;;31.83;15.43;;;16.10;99.90;;;;;;5073908;28;20043;-74
2023/10/02 06:16:39;;;;;;;;;;;16.10;99.90;;;;;;5074526;28;20047;-74
2023/10/02 06:19:13;;;;;;;26.55;14.27;;;16.10;99.90;;;;;;5074183;28;19920;-74
2023/10/02 06:21:45;;;;;;;31.17;15.40;;;16.10;99.90;;;;;;5073883;28;20047;-74
2023/10/02 06:24:27;;;;;;;26.48;13.88;;;16.20;99.90;;;;;;5074251;28;20070;-74
2023/10/02 06:26:57;;;;;;;30.30;15.75;;;16.20;99.90;;;;;;5073859;28;20044;-74
2023/10/02 06:29:32;;;;;;;25.40;14.27;;;16.20;99.90;;;;;;5073454;28;20360;-73
2023/10/02 06:32:09;;;;;;;27.70;15.15;;;16.30;99.90;;;;;;5073985;28;20415;-74
2023/10/02 06:34:37;;;;;;;26.35;15.13;;;16.30;99.90;;;;;;5057473;28;20398;-73
2023/10/02 06:37:13;;;;;;;28.67;15.20;;;16.40;99.90;;;;;;5073677;28;20036;-73
2023/10/02 06:40:06;;;;;;;28.05;14.48;;;16.30;99.90;;;;;;5073695;28;20075;-73
2023/10/02 06:42:32;;;;;;;27.63;13.90;;;16.40;99.90;;;;;;5057067;28;20148;-73
2023/10/02 06:45:01;;;;;;;33.03;15.60;;;16.50;99.90;;;;;;5073685;28;20148;-74
2023/10/02 06:47:32;;;;;;;32.45;15.75;;;16.50;99.90;;;;;;5073708;28;20499;-74
2023/10/02 06:50:03;;;;;;;27.75;15.27;;;16.60;99.90;;;;;;5073442;28;20040;-74
2023/10/02 06:52:33;;;;;;;27.95;15.18;;;16.50;99.90;;;;;;5073345;28;20176;-74
2023/10/02 06:55:01;;;;;;;31.20;16.38;;;16.60;99.90;;;;;;5057154;28;20368;-74
2023/10/02 06:57:27;;;;;;;28.05;14.57;;;16.60;99.90;;;;;;5073448;28;20048;-74
2023/10/02 06:59:53;;;;;;;30.63;15.43;;;16.60;99.90;;;;;;5073360;28;20522;-74
2023/10/02 07:02:27;;;;;;;27.50;14.75;;;16.70;99.90;;;;;;5091579;28;20215;-74
2023/10/02 07:04:55;;;;;;;28.25;15.35;;;16.70;99.90;;;;;;5091884;28;20040;-74
2023/10/02 07:07:25;;;;;;;29.05;15.13;;;16.70;99.90;;;;;;5091634;28;20051;-74
2023/10/02 07:09:55;;;;;;;31.55;15.95;;;16.70;99.90;;;;;;5073508;28;20135;-74
2023/10/02 07:12:27;;;;;;;28.30;14.75;;;16.80;99.90;;;;;;5092378;28;20036;-74
2023/10/02 07:15:10;;;;;;;28.67;14.88;;;16.90;99.90;;;;;;5095593;28;20036;-74
2023/10/02 07:17:47;;;;;;;30.13;15.88;;;16.90;99.90;;;;;;5077617;28;20040;-72
2023/10/02 07:20:19;;;;;;;26.98;14.35;;;17.00;99.90;;;;;;5095426;28;20067;-73
2023/10/02 07:22:45;;;;;;;27.98;15.57;;;17.00;99.90;;;;;;5077082;28;20040;-73
2023/10/02 07:25:11;;;;;;;25.30;13.88;;;17.20;99.90;;;;;;5095413;28;20074;-74
2023/10/02 07:27:37;;;;;;;31.90;15.82;;;17.40;99.90;;;;;;5095180;28;20044;-73
2023/10/02 07:30:04;;;;;;;29.75;15.57;;;17.40;99.90;;;;;;5095080;28;20119;-73
2023/10/02 07:32:32;;;;;;;29.38;14.20;;;17.50;99.90;;;;;;5077077;28;20036;-73
2023/10/02 07:35:21;;;;;;;29.13;14.50;;;17.60;99.90;;;;;;5095316;28;20449;-73
2023/10/02 07:37:58;;;;;;;25.27;13.75;;;17.80;99.90;;;;;;5076851;28;20065;-75
2023/10/02 07:40:46;;;;;;;29.63;15.73;;;17.90;99.90;;;;;;5076694;28;20048;-74
2023/10/02 07:43:12;;;;;;;29.58;15.15;;;18.00;99.90;;;;;;5095100;28;20035;-75
2023/10/02 07:45:38;;;;;;;28.70;14.07;;;18.20;99.90;;;;;;5095057;28;20075;-75
2023/10/02 07:48:11;;;;;;;32.55;15.82;;;18.30;99.90;;;;;;5076782;28;20098;-75
2023/10/02 07:50:41;;;;;;;28.00;15.40;;;18.50;99.90;;;;;;5059773;28;20055;-74
2023/10/02 07:53:08;;;;;;;26.98;14.20;;;18.70;99.90;;;;;;5095096;28;20040;-74
2023/10/02 07:55:35;;;;;;;29.10;15.02;;;18.80;99.90;;;;;;5076743;28;20097;-75
2023/10/02 07:58:01;;;;;;;23.83;13.98;;;18.90;99.90;;;;;;5094483;28;20047;-74
2023/10/02 08:00:38;;;;;;;31.20;15.05;;;19.10;99.90;;;;;;5059932;28;20040;-74
2023/10/02 08:03:29;;;;;;;30.20;14.23;;;19.10;99.90;;;;;;5099287;22;20416;-71
2023/10/02 08:05:54;;;;;;;28.75;15.20;;;19.10;99.90;;;;;;5050322;28;20045;-71
2023/10/02 08:08:20;;;;;;;29.48;15.23;;;19.00;99.90;;;;;;5015194;28;20045;-71
2023/10/02 08:10:49;;;;;;;28.10;14.07;;;19.10;99.90;;;;;;5031862;28;20539;-71
2023/10/02 08:13:37;;;;;;;28.30;14.90;;;19.10;99.90;;;;;;5038011;28;20040;-71
2023/10/02 08:16:14;;;;;;;28.55;15.38;;;19.30;99.90;;;;;;5050084;28;20458;-71
2023/10/02 08:18:58;;;;;;;34.85;15.90;;;19.20;99.90;;;;;;5048736;28;20114;-71
2023/10/02 08:21:46;;;;;;;27.02;13.48;;;19.20;99.90;;;;;;5049340;28;20582;-71
2023/10/02 08:24:13;;;;;;;29.83;14.73;;;19.30;99.90;;;;;;5049055;28;20049;-71
2023/10/02 08:26:40;;;;;;;27.63;13.52;;;19.40;99.90;;;;;;5050877;28;20388;-71
2023/10/02 08:29:08;;;;;;;28.30;14.90;;;19.50;99.90;;;;;;5049414;28;20083;-71
2023/10/02 08:31:44;;;;;;;25.75;14.73;;;19.60;99.90;;;;;;5049359;28;20025;-71
2023/10/02 08:34:19;;;;;;;28.17;15.32;;;19.50;99.90;;;;;;5049620;28;20052;-71
2023/10/02 08:37:04;;;;;;;30.17;14.98;;;19.60;99.90;;;;;;5051034;28;20029;-73
2023/10/02 08:39:31;;;;;;;31.17;15.02;;;19.60;99.90;;;;;;5032877;28;20049;-71
2023/10/02 08:41:59;;;;;;;31.40;15.65;;;19.60;99.90;;;;;;5050508;28;20041;-71
2023/10/02 08:44:25;;;;;;;27.90;14.98;;;19.60;99.90;;;;;;5049200;28;20033;-71
2023/10/02 08:46:50;;;;;;;32.33;15.75;;;19.70;99.90;;;;;;5050604;28;20029;-71
2023/10/02 08:49:19;;;;;;;32.60;15.70;;;19.80;99.90;;;;;;5050173;28;20077;-71
2023/10/02 08:51:51;;;;;;;28.17;15.57;;;19.80;99.90;;;;;;5049264;28;20033;-71
2023/10/02 08:54:18;;;;;;;26.88;14.05;;;20.00;99.90;;;;;;5049409;28;20500;-71
2023/10/02 08:56:44;;;;;;;31.38;15.32;;;20.00;99.90;;;;;;5050441;28;20097;-71
2023/10/02 08:59:18;;;;;;;29.58;15.98;;;20.10;99.90;;;;;;5050276;28;20048;-71
2023/10/02 09:01:47;;;;;;;31.38;17.13;;;20.20;99.90;;;;;;5049293;28;20048;-71
2023/10/02 09:06:58;;;;;;;33.30;16.20;;;19.90;99.90;;;;;;5050174;28;20037;-71
2023/10/02 09:09:35;;;;;;;32.10;16.15;;;19.70;99.90;;;;;;5049960;28;20492;-71
2023/10/02 09:12:03;;;;;;;31.52;15.93;;;19.70;99.90;;;;;;5050389;28;20041;-71
2023/10/02 09:17:12;;;;;;;31.65;15.00;;;19.60;99.90;;;;;;5050112;28;20049;-72
2023/10/02 09:19:39;;;;;;;32.67;15.48;;;19.60;99.90;;;;;;5049739;28;20049;-71
2023/10/02 09:22:12;;;;;;;29.45;15.40;;;19.80;99.90;;;;;;5048980;28;20053;-72
2023/10/02 09:24:40;;;;;;;;;;;19.90;99.90;;;;;;5050512;28;20045;-71
2023/10/02 09:27:26;;;;;;;29.77;16.33;;;20.00;99.90;;;;;;5048870;28;19916;-72
2023/10/02 09:30:16;;;;;;;27.98;14.52;;;20.20;99.90;;;;;;5049583;28;20068;-71
2023/10/02 09:32:49;;;;;;;28.23;14.82;;;20.20;99.90;;;;;;5048744;28;20473;-72
2023/10/02 09:35:23;;;;;;;28.95;14.25;;;20.40;99.90;;;;;;5049639;28;20052;-72
2023/10/02 09:37:55;;;;;;;31.63;15.32;;;20.30;99.90;;;;;;5048857;28;20434;-72
2023/10/02 09:40:23;;;;;;;25.00;14.60;;;20.40;99.90;;;;;;5049319;28;20419;-72
2023/10/02 09:43:00;;;;;;;31.52;15.80;;;20.50;99.90;;;;;;5049776;28;20073;-71
2023/10/02 09:45:37;;;;;;;27.65;14.70;;;20.50;99.90;;;;;;5048623;28;20124;-71
2023/10/02 09:48:46;;;;;;;30.73;16.05;;;20.60;99.90;;;;;;5049520;28;20469;-71
2023/10/02 09:51:06;;;;;;;;;;;20.50;99.90;;;;;;5049596;28;20040;-72
2023/10/02 09:53:35;;;;;;;32.95;14.82;;;20.30;99.90;;;;;;5048216;28;19923;-72
2023/10/02 09:56:17;;;;;;;35.05;15.05;;;20.20;99.90;;;;;;5048352;28;20029;-72
2023/10/02 09:58:55;;;;;;;28.40;14.32;;;20.20;99.90;;;;;;5049414;28;20076;-71
2023/10/02 10:03:50;;;;;;;29.75;14.45;;;20.00;99.90;;;;;;5049247;28;20059;-71
2023/10/02 10:06:19;;;;;;;28.02;13.05;;;20.00;99.90;;;;;;5049428;28;20052;-72
2023/10/02 10:14:39;;;;;;;28.52;13.50;;;20.10;99.90;;;;;;5049262;28;20074;-71
2023/10/02 10:17:15;;;;;;;29.08;13.52;;;20.20;99.90;;;;;;5049306;28;20037;-72
2023/10/02 10:20:18;;;;;;;32.35;14.55;;;20.20;99.90;;;;;;5048893;28;20038;-72
2023/10/02 10:22:50;;;;;;;30.05;14.73;;;20.20;99.90;;;;;;5049024;28;20044;-71
2023/10/02 10:28:04;;;;;;;28.30;15.00;;;20.20;99.90;;;;;;5049004;28;20045;-71
2023/10/02 10:33:15;;;;;;;29.90;14.43;;;20.20;99.90;;;;;;5048896;28;20276;-73
2023/10/02 10:35:51;;;;;;;25.10;14.45;;;20.50;99.90;;;;;;5048604;28;20044;-74
2023/10/02 10:38:25;;;;;;;27.80;13.43;;;20.50;99.90;;;;;;5031136;28;20041;-74
2023/10/02 10:40:54;;;;;;;28.63;13.95;;;20.60;99.90;;;;;;5048595;28;20040;-74
2023/10/02 10:43:21;;;;;;;30.20;14.02;;;20.60;99.90;;;;;;5048947;28;20045;-74
2023/10/02 10:45:51;;;;;;;29.85;14.00;;;20.70;99.90;;;;;;5047644;28;20440;-74
2023/10/02 10:48:24;;;;;;;27.45;14.07;;;20.90;99.90;;;;;;5048082;28;20648;-74
2023/10/02 10:50:57;;;;;;;27.45;13.43;;;21.00;99.90;;;;;;5048505;28;20037;-74
2023/10/02 10:53:27;;;;;;;26.25;13.70;;;21.10;99.90;;;;;;5047660;28;20033;-74
2023/10/02 10:55:56;;;;;;;29.83;15.15;;;21.10;99.90;;;;;;5048956;28;20061;-74
2023/10/02 10:58:35;;;;;;;31.38;14.55;;;21.00;99.90;;;;;;5048563;28;20508;-73
2023/10/02 11:01:05;;;;;;;27.50;14.20;;;20.90;99.90;;;;;;5048528;28;20049;-72
2023/10/02 11:03:31;;;;;;;33.53;15.73;;;20.90;99.90;;;;;;5048563;28;20064;-73
2023/10/02 11:06:04;;;;;;;26.33;13.68;;;20.80;99.90;;;;;;5048749;28;20415;-74
2023/10/02 11:08:33;;;;;;;26.63;13.55;;;20.90;99.90;;;;;;5047283;28;20420;-74
2023/10/02 11:11:00;;;;;;;25.60;13.18;;;20.90;99.90;;;;;;5048330;28;20033;-74
2023/10/02 11:13:27;;;;;;;31.65;13.88;;;21.00;99.90;;;;;;5048349;28;20048;-74
2023/10/02 11:16:08;;;;;;;30.20;14.00;;;21.00;99.90;;;;;;5046412;28;20069;-74
2023/10/02 11:18:38;;;;;;;30.75;15.02;;;21.20;99.90;;;;;;5036295;28;20034;-74
2023/10/02 11:21:21;;;;;;;27.35;14.40;;;21.20;99.90;;;;;;5028409;28;20041;-74
2023/10/02 11:23:48;;;;;;;28.92;13.18;;;21.20;99.90;;;;;;5027117;28;20050;-74
2023/10/02 11:26:15;;;;;;;31.63;14.30;;;21.30;99.90;;;;;;5028219;28;20056;-74
2023/10/02 11:28:44;;;;;;;30.40;14.30;;;21.30;99.90;;;;;;5028077;28;20082;-75
2023/10/02 11:31:36;;;;;;;24.98;13.88;;;21.30;99.90;;;;;;5026868;28;20056;-74
2023/10/02 11:34:07;;;;;;;26.08;12.80;;;21.30;99.90;;;;;;5027213;28;20117;-74
2023/10/02 11:36:37;;;;;;;29.33;13.50;;;21.30;99.90;;;;;;5027038;28;20041;-74
2023/10/02 11:39:09;;;;;;;26.70;14.85;;;21.30;99.90;;;;;;5028142;28;20053;-73
2023/10/02 11:41:37;;;;;;;29.13;16.08;;;21.30;99.90;;;;;;5026936;28;20081;-73
2023/10/02 11:44:04;;;;;;;29.90;14.85;;;21.20;99.90;;;;;;5028102;28;20090;-74
2023/10/02 11:46:30;;;;;;;28.15;14.77;;;21.20;99.90;;;;;;5026897;28;20080;-73
2023/10/02 11:48:56;;;;;;;32.25;15.25;;;21.20;99.90;;;;;;5029003;28;20038;-74
2023/10/02 11:51:28;;;;;;;29.80;14.90;;;21.20;99.90;;;;;;5043180;28;20089;-73
2023/10/02 11:54:09;;;;;;;24.00;14.10;;;21.30;99.90;;;;;;5044301;28;20041;-74
2023/10/02 11:56:35;;;;;;;34.70;15.20;;;21.30;99.90;;;;;;5046670;28;20120;-74
2023/10/02 11:59:02;;;;;;;27.98;15.60;;;21.20;99.90;;;;;;5046759;28;20052;-74
2023/10/02 12:01:28;;;;;;;32.53;16.52;;;21.20;99.90;;;;;;5050199;28;20068;-74
2023/10/02 12:03:57;;;;;;;32.08;16.23;;;21.20;99.90;;;;;;5046676;28;20488;-74
2023/10/02 12:06:27;;;;;;;27.70;15.15;;;21.20;99.90;;;;;;5040134;28;20488;-74
2023/10/02 12:08:57;;;;;;;24.13;13.88;;;21.20;99.90;;;;;;5039893;28;20607;-74
2023/10/02 12:11:28;;;;;;;29.33;15.27;;;21.20;99.90;;;;;;5049460;28;20037;-74
2023/10/02 12:13:54;;;;;;;29.45;16.70;;;21.30;99.90;;;;;;5049735;28;20075;-74
2023/10/02 12:16:21;;;;;;;26.65;16.23;;;21.50;99.90;;;;;;5040047;28;20057;-75
2023/10/02 12:18:49;;;;;;;29.77;15.75;;;21.40;99.90;;;;;;5049026;28;20056;-75
2023/10/02 12:21:16;;;;;;;30.88;16.27;;;21.50;99.90;;;;;;5044293;28;20536;-74
2023/10/02 12:23:43;;;;;;;33.72;16.25;;;21.50;99.90;;;;;;5049694;28;20045;-74
2023/10/02 12:26:14;;;;;;;32.03;17.35;;;21.50;99.90;;;;;;5049772;28;20041;-73
2023/10/02 12:28:39;;;;;;;34.03;18.98;;;21.50;99.90;;;;;;5049559;28;20077;-73
2023/10/02 12:31:14;;;;;;;33.08;18.75;;;21.40;99.90;;;;;;5050089;28;20067;-73
2023/10/02 12:33:44;;;;;;;33.08;17.92;;;21.30;99.90;;;;;;5050317;28;20419;-74
2023/10/02 12:36:22;;;;;;;35.88;18.52;;;21.30;99.90;;;;;;5047659;28;20155;-73
2023/10/02 12:38:50;;;;;;;35.35;17.85;;;21.40;99.90;;;;;;5039402;28;20041;-73
2023/10/02 12:41:21;;;;;;;32.90;18.35;;;21.40;99.90;;;;;;5049301;28;20044;-73
2023/10/02 12:43:55;;;;;;;33.42;17.70;;;21.40;99.90;;;;;;5050306;28;20073;-73
2023/10/02 12:46:22;;;;;;;33.38;17.90;;;21.40;99.90;;;;;;5049200;28;20563;-74
2023/10/02 12:48:48;;;;;;;28.70;16.13;;;21.40;99.90;;;;;;5049004;28;20087;-74
2023/10/02 12:51:15;;;;;;;28.10;15.88;;;21.50;99.90;;;;;;5050368;28;20160;-74
2023/10/02 12:53:42;;;;;;;32.33;16.98;;;21.50;99.90;;;;;;5050741;28;20120;-74
2023/10/02 12:56:08;;;;;;;33.50;17.80;;;21.40;99.90;;;;;;5048783;28;20063;-73
2023/10/02 12:58:34;;;;;;;35.55;18.05;;;21.40;99.90;;;;;;5050056;28;20487;-73
2023/10/02 13:01:00;;;;;;;35.47;17.13;;;21.40;99.90;;;;;;5048817;28;20449;-74
2023/10/02 13:03:32;;;;;;;27.38;16.35;;;21.50;99.90;;;;;;5050259;28;20072;-74
2023/10/02 13:05:59;;;;;;;32.90;15.50;;;21.30;99.90;;;;;;5050332;28;20045;-74
2023/10/02 13:08:26;;;;;;;34.50;16.38;;;21.40;99.90;;;;;;5048647;28;20616;-74
2023/10/02 13:10:52;;;;;;;32.88;16.80;;;21.30;99.90;;;;;;5048168;28;20508;-74
2023/10/02 13:13:18;;;;;;;27.55;15.98;;;21.30;99.90;;;;;;5048488;28;20041;-74
2023/10/02 13:15:44;;;;;;;30.80;17.00;;;21.30;99.90;;;;;;5050361;28;20033;-74
2023/10/02 13:18:09;;;;;;;27.90;16.45;;;21.40;99.90;;;;;;5049908;28;20067;-73
2023/10/02 13:20:36;;;;;;;29.20;16.23;;;21.30;99.90;;;;;;5049670;28;20080;-74
2023/10/02 13:23:02;;;;;;;33.28;18.10;;;21.30;99.90;;;;;;5040767;28;20077;-74
2023/10/02 13:25:28;;;;;;;26.83;15.15;;;21.30;99.90;;;;;;5039300;28;20029;-74
2023/10/02 13:27:53;;;;;;;28.13;15.88;;;21.40;99.90;;;;;;5039097;28;20095;-73
2023/10/02 13:30:25;;;;;;;34.60;17.40;;;21.50;99.90;;;;;;5037100;28;20029;-74
2023/10/02 13:32:51;;;;;;;31.05;16.30;;;21.40;99.90;;;;;;5038154;28;20029;-74
2023/10/02 13:35:17;;;;;;;31.73;17.60;;;21.40;99.90;;;;;;5027744;28;20128;-74
2023/10/02 13:37:43;;;;;;;31.23;16.50;;;21.40;99.90;;;;;;5034873;28;20120;-74
2023/10/02 13:40:25;;;;;;;33.95;17.10;;;21.40;99.90;;;;;;5042748;28;20044;-74
2023/10/02 13:42:54;;;;;;;27.23;15.77;;;21.50;99.90;;;;;;5029754;28;20042;-74
2023/10/02 13:45:19;;;;;;;33.95;19.42;;;21.40;99.90;;;;;;5040932;28;20040;-74
2023/10/02 13:47:48;;;;;;;33.55;17.83;;;21.40;99.90;;;;;;5049290;28;20488;-73
2023/10/02 13:50:14;;;;;;;30.85;14.93;;;21.40;99.90;;;;;;5048965;28;20033;-74